sensor_id;sensor_type;location;lat;lon;timestamp;pressure;altitude;pressure_sealevel;temperature;humidity
50650;BME280;36621;60.058;30.346;2023-02-11T03:50:02;100177.69;;;-0.18;66.19
50650;BME280;36621;60.058;30.346;2023-02-11T03:57:35;100185.63;;;0.02;65.29
50650;BME280;36621;60.058;30.346;2023-02-11T04:05:10;100189.84;;;0.16;65.99
50650;BME280;36621;60.058;30.346;2023-02-11T04:12:43;100182.78;;;0.22;65.38
50650;BME280;36621;60.058;30.346;2023-02-11T04:20:16;100175.06;;;0.32;65.41
50650;BME280;36621;60.058;30.346;2023-02-11T04:27:48;100172.75;;;0.36;65.40
50650;BME280;36621;60.058;30.346;2023-02-11T04:35:20;100154.59;;;0.38;65.17
50650;BME280;36621;60.058;30.346;2023-02-11T04:42:52;100142.63;;;0.34;64.96
50650;BME280;36621;60.058;30.346;2023-02-11T04:50:25;100138.94;;;0.28;65.33
50650;BME280;36621;60.058;30.346;2023-02-11T04:57:57;100139.34;;;0.32;64.82
50650;BME280;36621;60.058;30.346;2023-02-11T05:05:29;100111.66;;;0.31;65.43
50650;BME280;36621;60.058;30.346;2023-02-11T05:13:01;100106.72;;;0.28;65.30
50650;BME280;36621;60.058;30.346;2023-02-11T05:20:36;100098.78;;;0.40;66.58
50650;BME280;36621;60.058;30.346;2023-02-11T05:28:08;100088.16;;;0.27;66.55
50650;BME280;36621;60.058;30.346;2023-02-11T05:35:41;100083.56;;;0.34;66.82
50650;BME280;36621;60.058;30.346;2023-02-11T05:43:12;100092.59;;;0.40;67.07
50650;BME280;36621;60.058;30.346;2023-02-11T05:50:45;100080.59;;;0.42;67.57
50650;BME280;36621;60.058;30.346;2023-02-11T05:58:17;100074.00;;;0.38;67.85
50650;BME280;36621;60.058;30.346;2023-02-11T06:05:49;100076.34;;;0.53;68.31
50650;BME280;36621;60.058;30.346;2023-02-11T06:13:21;100050.72;;;0.50;68.37
50650;BME280;36621;60.058;30.346;2023-02-11T06:20:54;100032.38;;;0.47;68.82
50650;BME280;36621;60.058;30.346;2023-02-11T06:28:27;100050.91;;;0.74;68.47
50650;BME280;36621;60.058;30.346;2023-02-11T06:36:00;100048.34;;;0.79;68.37
50650;BME280;36621;60.058;30.346;2023-02-11T06:43:32;100041.25;;;0.85;68.20
50650;BME280;36621;60.058;30.346;2023-02-11T06:51:06;100027.75;;;0.92;67.99
50650;BME280;36621;60.058;30.346;2023-02-11T06:58:39;100022.06;;;1.00;67.61
50650;BME280;36621;60.058;30.346;2023-02-11T07:06:15;100019.19;;;1.13;68.04
50650;BME280;36621;60.058;30.346;2023-02-11T07:13:47;100009.16;;;1.20;67.82
50650;BME280;36621;60.058;30.346;2023-02-11T07:21:21;99994.03;;;1.08;68.43
50650;BME280;36621;60.058;30.346;2023-02-11T07:28:54;99980.13;;;1.11;67.98
50650;BME280;36621;60.058;30.346;2023-02-11T07:36:28;99954.59;;;0.90;68.82
50650;BME280;36621;60.058;30.346;2023-02-11T07:44:01;99947.03;;;0.98;68.73
50650;BME280;36621;60.058;30.346;2023-02-11T07:51:34;99981.75;;;1.00;69.23
50650;BME280;36621;60.058;30.346;2023-02-11T07:59:06;99984.78;;;1.03;69.46
50650;BME280;36621;60.058;30.346;2023-02-11T08:06:41;99984.25;;;1.13;69.52
50650;BME280;36621;60.058;30.346;2023-02-11T08:14:13;99983.19;;;1.14;69.56
50650;BME280;36621;60.058;30.346;2023-02-11T08:21:46;99987.59;;;1.39;68.99
50650;BME280;36621;60.058;30.346;2023-02-11T08:29:17;99975.13;;;1.56;68.21
50650;BME280;36621;60.058;30.346;2023-02-11T08:36:53;99968.47;;;1.71;68.06
50650;BME280;36621;60.058;30.346;2023-02-11T08:44:25;99968.56;;;1.76;67.88
50650;BME280;36621;60.058;30.346;2023-02-11T08:51:58;99969.72;;;1.56;69.43
50650;BME280;36621;60.058;30.346;2023-02-11T08:59:33;99975.56;;;1.42;68.84
50650;BME280;36621;60.058;30.346;2023-02-11T09:07:06;99974.13;;;1.27;69.41
50650;BME280;36621;60.058;30.346;2023-02-11T09:14:38;99977.88;;;1.38;69.56
50650;BME280;36621;60.058;30.346;2023-02-11T09:22:12;99953.31;;;1.34;69.44
50650;BME280;36621;60.058;30.346;2023-02-11T09:29:44;99952.31;;;1.17;69.99
50650;BME280;36621;60.058;30.346;2023-02-11T09:37:16;99972.88;;;1.53;69.57
50650;BME280;36621;60.058;30.346;2023-02-11T09:44:48;99976.19;;;1.79;68.73
50650;BME280;36621;60.058;30.346;2023-02-11T09:52:29;99969.97;;;1.79;69.04
50650;BME280;36621;60.058;30.346;2023-02-11T10:00:16;99955.47;;;1.91;69.37
50650;BME280;36621;60.058;30.346;2023-02-11T10:07:56;99959.56;;;1.82;68.57
50650;BME280;36621;60.058;30.346;2023-02-11T10:15:40;99940.75;;;1.16;69.58
50650;BME280;36621;60.058;30.346;2023-02-11T10:23:20;99966.00;;;1.15;69.62
50650;BME280;36621;60.058;30.346;2023-02-11T10:30:56;99970.84;;;0.95;69.42
50650;BME280;36621;60.058;30.346;2023-02-11T10:38:30;99962.81;;;0.76;69.56
50650;BME280;36621;60.058;30.346;2023-02-11T10:46:04;99942.19;;;0.40;69.92
50650;BME280;36621;60.058;30.346;2023-02-11T10:53:37;99974.41;;;0.58;69.75
50650;BME280;36621;60.058;30.346;2023-02-11T11:01:10;99998.53;;;0.95;68.50
50650;BME280;36621;60.058;30.346;2023-02-11T11:08:44;99975.19;;;0.96;68.01
50650;BME280;36621;60.058;30.346;2023-02-11T11:16:23;100013.84;;;1.25;68.40
50650;BME280;36621;60.058;30.346;2023-02-11T11:23:57;100026.75;;;1.35;68.42
50650;BME280;36621;60.058;30.346;2023-02-11T11:31:31;100036.63;;;1.23;67.79
50650;BME280;36621;60.058;30.346;2023-02-11T11:39:21;100063.91;;;1.26;68.58
50650;BME280;36621;60.058;30.346;2023-02-11T11:47:12;100070.53;;;0.93;68.47
50650;BME280;36621;60.058;30.346;2023-02-11T11:54:54;100100.47;;;0.97;68.86
50650;BME280;36621;60.058;30.346;2023-02-11T12:02:49;100117.00;;;1.49;68.63
50650;BME280;36621;60.058;30.346;2023-02-11T12:10:49;100131.25;;;1.80;67.21
50650;BME280;36621;60.058;30.346;2023-02-11T12:18:40;100112.66;;;1.48;67.05
50650;BME280;36621;60.058;30.346;2023-02-11T12:26:17;100109.94;;;1.18;67.03
50650;BME280;36621;60.058;30.346;2023-02-11T12:34:07;100132.16;;;1.44;67.33
50650;BME280;36621;60.058;30.346;2023-02-11T12:41:57;100165.13;;;1.39;67.20
50650;BME280;36621;60.058;30.346;2023-02-11T12:50:05;100202.16;;;1.18;67.10
50650;BME280;36621;60.058;30.346;2023-02-11T12:57:41;100220.06;;;1.13;66.99
50650;BME280;36621;60.058;30.346;2023-02-11T13:05:22;100224.00;;;1.29;67.15
50650;BME280;36621;60.058;30.346;2023-02-11T13:12:56;100223.03;;;1.23;66.90
50650;BME280;36621;60.058;30.346;2023-02-11T13:20:52;100259.25;;;1.20;65.97
50650;BME280;36621;60.058;30.346;2023-02-11T13:28:34;100275.81;;;0.99;66.89
50650;BME280;36621;60.058;30.346;2023-02-11T13:36:29;100307.53;;;0.90;66.95
50650;BME280;36621;60.058;30.346;2023-02-11T13:44:17;100321.09;;;0.70;67.07
50650;BME280;36621;60.058;30.346;2023-02-11T13:51:53;100179.38;;;-0.24;66.88
50650;BME280;36621;60.058;30.346;2023-02-11T13:59:46;100337.75;;;0.85;67.09
50650;BME280;36621;60.058;30.346;2023-02-11T14:07:25;100356.38;;;0.80;66.65
50650;BME280;36621;60.058;30.346;2023-02-11T14:15:26;100307.81;;;0.43;66.98
50650;BME280;36621;60.058;30.346;2023-02-11T14:23:01;100379.00;;;0.66;65.94
50650;BME280;36621;60.058;30.346;2023-02-11T14:30:55;100403.03;;;0.54;68.29
50650;BME280;36621;60.058;30.346;2023-02-11T14:38:39;100428.59;;;0.25;66.74
50650;BME280;36621;60.058;30.346;2023-02-11T14:46:17;100449.25;;;0.11;66.50
50650;BME280;36621;60.058;30.346;2023-02-11T14:53:52;100443.94;;;-0.09;67.45
50650;BME280;36621;60.058;30.346;2023-02-11T15:01:34;100477.97;;;-0.03;67.26
50650;BME280;36621;60.058;30.346;2023-02-11T15:09:13;100500.50;;;-0.18;67.50
50650;BME280;36621;60.058;30.346;2023-02-11T15:16:48;100513.28;;;-0.46;67.66
50650;BME280;36621;60.058;30.346;2023-02-11T15:24:24;100522.97;;;-0.72;67.19
50650;BME280;36621;60.058;30.346;2023-02-11T15:32:12;100538.84;;;-0.64;67.94
50650;BME280;36621;60.058;30.346;2023-02-11T15:39:47;100584.84;;;-0.67;66.64
50650;BME280;36621;60.058;30.346;2023-02-11T15:47:21;100604.03;;;-0.70;67.53
50650;BME280;36621;60.058;30.346;2023-02-11T15:54:57;100605.34;;;-1.01;68.24
50650;BME280;36621;60.058;30.346;2023-02-11T16:02:33;100649.34;;;-0.82;67.98
50650;BME280;36621;60.058;30.346;2023-02-11T16:10:19;100654.06;;;-0.91;67.31
50650;BME280;36621;60.058;30.346;2023-02-11T16:18:12;100654.22;;;-0.99;67.93
50650;BME280;36621;60.058;30.346;2023-02-11T16:26:01;100654.22;;;-1.34;67.85
50650;BME280;36621;60.058;30.346;2023-02-11T16:33:39;100723.34;;;-1.23;67.65
50650;BME280;36621;60.058;30.346;2023-02-11T16:41:11;100720.81;;;-1.52;67.47
50650;BME280;36621;60.058;30.346;2023-02-11T16:48:44;100738.69;;;-1.60;67.08
50650;BME280;36621;60.058;30.346;2023-02-11T16:56:25;100754.69;;;-1.66;67.45
50650;BME280;36621;60.058;30.346;2023-02-11T17:03:58;100805.25;;;-1.57;66.80
50650;BME280;36621;60.058;30.346;2023-02-11T17:11:30;100809.81;;;-1.72;67.44
50650;BME280;36621;60.058;30.346;2023-02-11T17:19:03;100859.75;;;-1.64;66.92
50650;BME280;36621;60.058;30.346;2023-02-11T17:26:35;100887.63;;;-1.73;67.10
50650;BME280;36621;60.058;30.346;2023-02-11T17:34:08;100858.44;;;-2.05;67.28
50650;BME280;36621;60.058;30.346;2023-02-11T17:41:41;100914.63;;;-1.90;67.71
50650;BME280;36621;60.058;30.346;2023-02-11T17:49:13;100932.88;;;-1.94;67.36
50650;BME280;36621;60.058;30.346;2023-02-11T17:56:46;100958.81;;;-2.09;66.84
50650;BME280;36621;60.058;30.346;2023-02-11T18:04:21;100965.44;;;-2.20;67.53
50650;BME280;36621;60.058;30.346;2023-02-11T18:11:55;100970.34;;;-2.23;67.32
50650;BME280;36621;60.058;30.346;2023-02-11T18:19:29;100992.81;;;-2.33;67.14
50650;BME280;36621;60.058;30.346;2023-02-11T18:27:03;100994.72;;;-2.41;67.27
50650;BME280;36621;60.058;30.346;2023-02-11T18:34:38;101039.94;;;-2.32;67.02
50650;BME280;36621;60.058;30.346;2023-02-11T18:42:10;101055.72;;;-2.37;66.71
50650;BME280;36621;60.058;30.346;2023-02-11T18:49:43;101063.81;;;-2.45;67.19
50650;BME280;36621;60.058;30.346;2023-02-11T18:57:15;101068.31;;;-2.46;66.93
50650;BME280;36621;60.058;30.346;2023-02-11T19:04:47;101086.56;;;-2.49;67.57
50650;BME280;36621;60.058;30.346;2023-02-11T19:12:19;101080.13;;;-2.63;67.00
50650;BME280;36621;60.058;30.346;2023-02-11T19:19:53;101110.66;;;-2.57;67.35
50650;BME280;36621;60.058;30.346;2023-02-11T19:27:25;101109.03;;;-2.58;67.29
50650;BME280;36621;60.058;30.346;2023-02-11T19:35:00;101117.44;;;-2.70;67.21
50650;BME280;36621;60.058;30.346;2023-02-11T19:43:21;101122.59;;;-2.68;67.85
50650;BME280;36621;60.058;30.346;2023-02-11T19:51:43;101158.25;;;-2.84;66.82
50650;BME280;36621;60.058;30.346;2023-02-11T19:59:15;101178.53;;;-2.98;67.87
50650;BME280;36621;60.058;30.346;2023-02-11T20:06:47;101181.56;;;-3.09;67.90
50650;BME280;36621;60.058;30.346;2023-02-11T20:14:19;101189.44;;;-3.24;67.11
50650;BME280;36621;60.058;30.346;2023-02-11T20:21:54;101216.81;;;-3.14;67.51
50650;BME280;36621;60.058;30.346;2023-02-11T20:29:26;101215.16;;;-3.23;66.79
50650;BME280;36621;60.058;30.346;2023-02-11T20:37:02;101239.38;;;-3.25;67.29
50650;BME280;36621;60.058;30.346;2023-02-11T20:44:35;101254.22;;;-3.30;67.44
50650;BME280;36621;60.058;30.346;2023-02-11T20:52:07;101256.91;;;-3.39;66.97
50650;BME280;36621;60.058;30.346;2023-02-11T20:59:39;101199.34;;;-3.74;67.16
50650;BME280;36621;60.058;30.346;2023-02-11T21:07:14;101257.91;;;-3.56;67.07
50650;BME280;36621;60.058;30.346;2023-02-11T21:14:45;101279.09;;;-3.55;67.54
50650;BME280;36621;60.058;30.346;2023-02-11T21:22:18;101283.75;;;-3.57;66.92
50650;BME280;36621;60.058;30.346;2023-02-11T21:29:50;101305.97;;;-3.48;67.46
50650;BME280;36621;60.058;30.346;2023-02-11T21:37:23;101304.63;;;-3.52;66.97
50650;BME280;36621;60.058;30.346;2023-02-11T21:44:56;101313.97;;;-3.56;66.88
50650;BME280;36621;60.058;30.346;2023-02-11T21:52:29;101316.13;;;-3.60;66.76
50650;BME280;36621;60.058;30.346;2023-02-11T22:00:01;101317.75;;;-3.84;66.68
50650;BME280;36621;60.058;30.346;2023-02-11T22:07:35;101347.28;;;-3.69;67.18
50650;BME280;36621;60.058;30.346;2023-02-11T22:15:08;101352.47;;;-3.75;67.04
50650;BME280;36621;60.058;30.346;2023-02-11T22:22:40;101361.94;;;-3.89;67.08
50650;BME280;36621;60.058;30.346;2023-02-11T22:30:12;101358.59;;;-3.91;66.83
50650;BME280;36621;60.058;30.346;2023-02-11T22:37:45;101375.28;;;-3.89;67.14
50650;BME280;36621;60.058;30.346;2023-02-11T22:45:17;101398.28;;;-3.88;66.92
50650;BME280;36621;60.058;30.346;2023-02-11T22:52:49;101418.16;;;-3.82;66.76
50650;BME280;36621;60.058;30.346;2023-02-11T23:00:23;101453.69;;;-3.82;66.52
50650;BME280;36621;60.058;30.346;2023-02-11T23:07:57;101427.88;;;-4.08;66.69
50650;BME280;36621;60.058;30.346;2023-02-11T23:15:30;101452.91;;;-4.01;66.90
50650;BME280;36621;60.058;30.346;2023-02-11T23:23:02;101467.53;;;-4.13;66.88
50650;BME280;36621;60.058;30.346;2023-02-11T23:30:34;101462.00;;;-4.20;66.98
50650;BME280;36621;60.058;30.346;2023-02-11T23:38:07;101485.03;;;-4.10;66.83
50650;BME280;36621;60.058;30.346;2023-02-11T23:45:39;101485.50;;;-4.15;66.47
50650;BME280;36621;60.058;30.346;2023-02-11T23:53:12;101490.66;;;-4.22;66.57
